sensor_id;sensor_type;location;lat;lon;timestamp;P1;durP1;ratioP1;P2;durP2;ratioP2
26946;SDS011;14501;52.282;10.560;2023-05-07T00:01:53;27.20;;;16.75;;
26946;SDS011;14501;52.282;10.560;2023-05-07T00:04:18;29.92;;;17.08;;
26946;SDS011;14501;52.282;10.560;2023-05-07T00:06:44;30.63;;;17.42;;
26946;SDS011;14501;52.282;10.560;2023-05-07T00:09:10;33.25;;;17.27;;
26946;SDS011;14501;52.282;10.560;2023-05-07T00:11:35;31.80;;;18.90;;
26946;SDS011;14501;52.282;10.560;2023-05-07T00:14:01;32.35;;;16.70;;
26946;SDS011;14501;52.282;10.560;2023-05-07T00:16:26;34.38;;;18.73;;
26946;SDS011;14501;52.282;10.560;2023-05-07T00:18:52;27.83;;;15.88;;
26946;SDS011;14501;52.282;10.560;2023-05-07T00:21:18;29.00;;;16.70;;
26946;SDS011;14501;52.282;10.560;2023-05-07T00:23:44;23.77;;;14.57;;
26946;SDS011;14501;52.282;10.560;2023-05-07T00:26:09;28.75;;;15.85;;
26946;SDS011;14501;52.282;10.560;2023-05-07T00:28:35;25.25;;;15.07;;
26946;SDS011;14501;52.282;10.560;2023-05-07T00:31:01;26.55;;;14.77;;
26946;SDS011;14501;52.282;10.560;2023-05-07T00:33:26;24.85;;;13.05;;
26946;SDS011;14501;52.282;10.560;2023-05-07T00:35:52;22.58;;;13.05;;
26946;SDS011;14501;52.282;10.560;2023-05-07T00:38:19;23.42;;;12.48;;
26946;SDS011;14501;52.282;10.560;2023-05-07T00:40:45;20.15;;;12.38;;
26946;SDS011;14501;52.282;10.560;2023-05-07T00:43:10;20.10;;;10.98;;
26946;SDS011;14501;52.282;10.560;2023-05-07T00:45:37;18.65;;;10.98;;
26946;SDS011;14501;52.282;10.560;2023-05-07T00:48:03;20.77;;;12.15;;
26946;SDS011;14501;52.282;10.560;2023-05-07T00:50:30;23.27;;;12.30;;
26946;SDS011;14501;52.282;10.560;2023-05-07T00:52:56;22.88;;;12.98;;
26946;SDS011;14501;52.282;10.560;2023-05-07T00:55:22;22.88;;;12.75;;
26946;SDS011;14501;52.282;10.560;2023-05-07T00:57:48;21.15;;;11.57;;
26946;SDS011;14501;52.282;10.560;2023-05-07T01:00:15;21.35;;;10.90;;
26946;SDS011;14501;52.282;10.560;2023-05-07T01:02:41;21.05;;;12.18;;
26946;SDS011;14501;52.282;10.560;2023-05-07T01:05:08;18.23;;;10.15;;
26946;SDS011;14501;52.282;10.560;2023-05-07T01:07:36;19.77;;;11.07;;
26946;SDS011;14501;52.282;10.560;2023-05-07T01:10:04;21.10;;;10.75;;
26946;SDS011;14501;52.282;10.560;2023-05-07T01:12:31;18.15;;;10.68;;
26946;SDS011;14501;52.282;10.560;2023-05-07T01:14:57;17.20;;;9.95;;
26946;SDS011;14501;52.282;10.560;2023-05-07T01:17:23;17.67;;;10.45;;
26946;SDS011;14501;52.282;10.560;2023-05-07T01:19:49;15.65;;;10.32;;
26946;SDS011;14501;52.282;10.560;2023-05-07T01:22:18;14.57;;;9.00;;
26946;SDS011;14501;52.282;10.560;2023-05-07T01:24:59;16.17;;;9.07;;
26946;SDS011;14501;52.282;10.560;2023-05-07T01:27:26;15.57;;;9.82;;
26946;SDS011;14501;52.282;10.560;2023-05-07T01:29:52;14.30;;;9.40;;
26946;SDS011;14501;52.282;10.560;2023-05-07T01:32:23;17.42;;;9.70;;
26946;SDS011;14501;52.282;10.560;2023-05-07T01:34:53;14.45;;;9.20;;
26946;SDS011;14501;52.282;10.560;2023-05-07T01:37:20;17.02;;;9.43;;
26946;SDS011;14501;52.282;10.560;2023-05-07T01:39:47;15.85;;;10.10;;
26946;SDS011;14501;52.282;10.560;2023-05-07T01:42:13;15.98;;;9.50;;
26946;SDS011;14501;52.282;10.560;2023-05-07T01:44:38;15.65;;;10.52;;
26946;SDS011;14501;52.282;10.560;2023-05-07T01:47:04;14.45;;;9.23;;
26946;SDS011;14501;52.282;10.560;2023-05-07T01:49:31;13.68;;;7.75;;
26946;SDS011;14501;52.282;10.560;2023-05-07T01:51:57;14.20;;;8.43;;
26946;SDS011;14501;52.282;10.560;2023-05-07T01:54:26;12.50;;;8.65;;
26946;SDS011;14501;52.282;10.560;2023-05-07T01:56:58;12.40;;;8.60;;
26946;SDS011;14501;52.282;10.560;2023-05-07T01:59:24;16.55;;;9.88;;
26946;SDS011;14501;52.282;10.560;2023-05-07T02:01:49;15.57;;;9.55;;
26946;SDS011;14501;52.282;10.560;2023-05-07T02:04:15;16.27;;;9.50;;
26946;SDS011;14501;52.282;10.560;2023-05-07T02:06:41;17.83;;;9.80;;
26946;SDS011;14501;52.282;10.560;2023-05-07T02:09:06;17.67;;;10.38;;
26946;SDS011;14501;52.282;10.560;2023-05-07T02:11:33;17.20;;;10.00;;
26946;SDS011;14501;52.282;10.560;2023-05-07T02:13:59;18.02;;;9.95;;
26946;SDS011;14501;52.282;10.560;2023-05-07T02:16:25;14.90;;;9.50;;
26946;SDS011;14501;52.282;10.560;2023-05-07T02:18:50;15.27;;;9.52;;
26946;SDS011;14501;52.282;10.560;2023-05-07T02:21:16;14.57;;;9.07;;
26946;SDS011;14501;52.282;10.560;2023-05-07T02:23:41;15.05;;;9.20;;
26946;SDS011;14501;52.282;10.560;2023-05-07T02:26:07;14.45;;;9.05;;
26946;SDS011;14501;52.282;10.560;2023-05-07T02:28:33;15.43;;;9.55;;
26946;SDS011;14501;52.282;10.560;2023-05-07T02:31:02;14.65;;;9.15;;
26946;SDS011;14501;52.282;10.560;2023-05-07T02:33:28;16.02;;;9.82;;
26946;SDS011;14501;52.282;10.560;2023-05-07T02:35:53;15.82;;;9.75;;
26946;SDS011;14501;52.282;10.560;2023-05-07T02:38:19;14.10;;;8.73;;
26946;SDS011;14501;52.282;10.560;2023-05-07T02:40:45;13.15;;;8.60;;
26946;SDS011;14501;52.282;10.560;2023-05-07T02:43:10;15.05;;;8.85;;
26946;SDS011;14501;52.282;10.560;2023-05-07T02:45:36;13.68;;;8.38;;
26946;SDS011;14501;52.282;10.560;2023-05-07T02:48:02;12.75;;;8.35;;
26946;SDS011;14501;52.282;10.560;2023-05-07T02:50:28;11.73;;;8.52;;
26946;SDS011;14501;52.282;10.560;2023-05-07T02:52:54;13.30;;;8.38;;
26946;SDS011;14501;52.282;10.560;2023-05-07T02:55:20;12.45;;;8.52;;
26946;SDS011;14501;52.282;10.560;2023-05-07T02:57:45;12.82;;;8.77;;
26946;SDS011;14501;52.282;10.560;2023-05-07T03:00:14;14.40;;;9.00;;
26946;SDS011;14501;52.282;10.560;2023-05-07T03:02:41;15.30;;;9.18;;
26946;SDS011;14501;52.282;10.560;2023-05-07T03:05:06;15.07;;;9.18;;
26946;SDS011;14501;52.282;10.560;2023-05-07T03:07:32;13.27;;;9.30;;
26946;SDS011;14501;52.282;10.560;2023-05-07T03:09:58;14.65;;;8.13;;
26946;SDS011;14501;52.282;10.560;2023-05-07T03:12:24;12.52;;;7.80;;
26946;SDS011;14501;52.282;10.560;2023-05-07T03:14:50;16.17;;;9.07;;
26946;SDS011;14501;52.282;10.560;2023-05-07T03:17:15;15.45;;;8.82;;
26946;SDS011;14501;52.282;10.560;2023-05-07T03:19:41;13.57;;;9.05;;
26946;SDS011;14501;52.282;10.560;2023-05-07T03:22:06;14.27;;;9.35;;
26946;SDS011;14501;52.282;10.560;2023-05-07T03:24:32;12.57;;;8.50;;
26946;SDS011;14501;52.282;10.560;2023-05-07T03:26:58;16.35;;;9.05;;
26946;SDS011;14501;52.282;10.560;2023-05-07T03:29:23;16.50;;;9.48;;
26946;SDS011;14501;52.282;10.560;2023-05-07T03:31:49;13.55;;;9.45;;
26946;SDS011;14501;52.282;10.560;2023-05-07T03:34:15;13.95;;;9.75;;
26946;SDS011;14501;52.282;10.560;2023-05-07T03:36:42;16.30;;;9.57;;
26946;SDS011;14501;52.282;10.560;2023-05-07T03:39:07;15.27;;;9.85;;
26946;SDS011;14501;52.282;10.560;2023-05-07T03:41:33;16.15;;;10.88;;
26946;SDS011;14501;52.282;10.560;2023-05-07T03:43:58;13.90;;;9.27;;
26946;SDS011;14501;52.282;10.560;2023-05-07T03:46:24;14.05;;;9.32;;
26946;SDS011;14501;52.282;10.560;2023-05-07T03:48:51;13.10;;;9.27;;
26946;SDS011;14501;52.282;10.560;2023-05-07T03:51:17;13.55;;;8.15;;
26946;SDS011;14501;52.282;10.560;2023-05-07T03:53:42;11.60;;;8.15;;
26946;SDS011;14501;52.282;10.560;2023-05-07T03:56:08;11.63;;;7.28;;
26946;SDS011;14501;52.282;10.560;2023-05-07T03:58:33;11.68;;;7.95;;
26946;SDS011;14501;52.282;10.560;2023-05-07T04:00:59;9.60;;;6.90;;
26946;SDS011;14501;52.282;10.560;2023-05-07T04:03:26;10.93;;;7.75;;
26946;SDS011;14501;52.282;10.560;2023-05-07T04:05:51;10.60;;;7.30;;
26946;SDS011;14501;52.282;10.560;2023-05-07T04:08:17;11.10;;;7.25;;
26946;SDS011;14501;52.282;10.560;2023-05-07T04:10:42;9.63;;;7.05;;
26946;SDS011;14501;52.282;10.560;2023-05-07T04:13:08;11.48;;;7.88;;
26946;SDS011;14501;52.282;10.560;2023-05-07T04:15:34;12.80;;;7.63;;
26946;SDS011;14501;52.282;10.560;2023-05-07T04:18:00;10.82;;;7.63;;
26946;SDS011;14501;52.282;10.560;2023-05-07T04:20:26;11.20;;;8.25;;
26946;SDS011;14501;52.282;10.560;2023-05-07T04:22:51;10.25;;;7.38;;
26946;SDS011;14501;52.282;10.560;2023-05-07T04:25:17;12.57;;;8.02;;
26946;SDS011;14501;52.282;10.560;2023-05-07T04:27:42;10.63;;;7.60;;
26946;SDS011;14501;52.282;10.560;2023-05-07T04:30:08;10.68;;;7.47;;
26946;SDS011;14501;52.282;10.560;2023-05-07T04:32:34;9.40;;;7.68;;
26946;SDS011;14501;52.282;10.560;2023-05-07T04:35:01;11.05;;;7.95;;
26946;SDS011;14501;52.282;10.560;2023-05-07T04:37:27;11.35;;;8.25;;
26946;SDS011;14501;52.282;10.560;2023-05-07T04:39:52;12.30;;;7.90;;
26946;SDS011;14501;52.282;10.560;2023-05-07T04:42:18;11.70;;;8.07;;
26946;SDS011;14501;52.282;10.560;2023-05-07T04:44:44;10.30;;;7.20;;
26946;SDS011;14501;52.282;10.560;2023-05-07T04:47:13;11.98;;;8.23;;
26946;SDS011;14501;52.282;10.560;2023-05-07T04:49:38;10.25;;;6.80;;
26946;SDS011;14501;52.282;10.560;2023-05-07T04:52:04;12.93;;;8.65;;
26946;SDS011;14501;52.282;10.560;2023-05-07T04:54:30;10.68;;;6.78;;
26946;SDS011;14501;52.282;10.560;2023-05-07T04:56:55;10.55;;;7.25;;
26946;SDS011;14501;52.282;10.560;2023-05-07T04:59:21;10.98;;;7.47;;
26946;SDS011;14501;52.282;10.560;2023-05-07T05:01:47;9.27;;;6.45;;
26946;SDS011;14501;52.282;10.560;2023-05-07T05:04:12;8.65;;;6.20;;
26946;SDS011;14501;52.282;10.560;2023-05-07T05:06:38;8.88;;;6.95;;
26946;SDS011;14501;52.282;10.560;2023-05-07T05:09:04;8.82;;;6.30;;
26946;SDS011;14501;52.282;10.560;2023-05-07T05:11:30;8.50;;;6.20;;
26946;SDS011;14501;52.282;10.560;2023-05-07T05:13:56;9.88;;;6.68;;
26946;SDS011;14501;52.282;10.560;2023-05-07T05:16:23;8.60;;;6.00;;
26946;SDS011;14501;52.282;10.560;2023-05-07T05:18:49;9.60;;;6.85;;
26946;SDS011;14501;52.282;10.560;2023-05-07T05:21:16;9.40;;;6.47;;
26946;SDS011;14501;52.282;10.560;2023-05-07T05:23:42;10.90;;;7.38;;
26946;SDS011;14501;52.282;10.560;2023-05-07T05:26:08;9.38;;;6.93;;
26946;SDS011;14501;52.282;10.560;2023-05-07T05:28:33;10.45;;;8.02;;
26946;SDS011;14501;52.282;10.560;2023-05-07T05:30:59;10.63;;;6.38;;
26946;SDS011;14501;52.282;10.560;2023-05-07T05:33:25;11.43;;;7.20;;
26946;SDS011;14501;52.282;10.560;2023-05-07T05:35:50;11.30;;;8.15;;
26946;SDS011;14501;52.282;10.560;2023-05-07T05:38:16;13.05;;;7.85;;
26946;SDS011;14501;52.282;10.560;2023-05-07T05:40:41;10.25;;;7.57;;
26946;SDS011;14501;52.282;10.560;2023-05-07T05:43:07;11.63;;;8.77;;
26946;SDS011;14501;52.282;10.560;2023-05-07T05:45:32;11.57;;;7.68;;
26946;SDS011;14501;52.282;10.560;2023-05-07T05:47:58;9.70;;;7.88;;
26946;SDS011;14501;52.282;10.560;2023-05-07T05:50:24;10.77;;;7.90;;
26946;SDS011;14501;52.282;10.560;2023-05-07T05:52:49;11.88;;;8.10;;
26946;SDS011;14501;52.282;10.560;2023-05-07T05:55:15;10.55;;;8.57;;
26946;SDS011;14501;52.282;10.560;2023-05-07T05:57:41;13.02;;;9.23;;
26946;SDS011;14501;52.282;10.560;2023-05-07T06:00:07;13.73;;;9.10;;
26946;SDS011;14501;52.282;10.560;2023-05-07T06:02:33;14.20;;;9.15;;
26946;SDS011;14501;52.282;10.560;2023-05-07T06:04:58;12.73;;;9.05;;
26946;SDS011;14501;52.282;10.560;2023-05-07T06:07:24;13.85;;;8.95;;
26946;SDS011;14501;52.282;10.560;2023-05-07T06:09:50;10.82;;;8.50;;
26946;SDS011;14501;52.282;10.560;2023-05-07T06:12:16;12.95;;;8.60;;
26946;SDS011;14501;52.282;10.560;2023-05-07T06:14:43;11.63;;;8.50;;
26946;SDS011;14501;52.282;10.560;2023-05-07T06:17:09;11.20;;;8.63;;
26946;SDS011;14501;52.282;10.560;2023-05-07T06:19:35;12.05;;;8.77;;
26946;SDS011;14501;52.282;10.560;2023-05-07T06:22:00;11.20;;;8.20;;
26946;SDS011;14501;52.282;10.560;2023-05-07T06:24:27;11.77;;;8.23;;
26946;SDS011;14501;52.282;10.560;2023-05-07T06:26:53;9.32;;;6.85;;
26946;SDS011;14501;52.282;10.560;2023-05-07T06:29:18;9.68;;;7.63;;
26946;SDS011;14501;52.282;10.560;2023-05-07T06:31:44;9.88;;;7.13;;
26946;SDS011;14501;52.282;10.560;2023-05-07T06:34:10;10.88;;;7.68;;
26946;SDS011;14501;52.282;10.560;2023-05-07T06:36:39;9.88;;;7.85;;
26946;SDS011;14501;52.282;10.560;2023-05-07T06:39:05;9.18;;;6.13;;
26946;SDS011;14501;52.282;10.560;2023-05-07T06:41:30;8.95;;;6.28;;
26946;SDS011;14501;52.282;10.560;2023-05-07T06:43:56;8.18;;;5.63;;
26946;SDS011;14501;52.282;10.560;2023-05-07T06:46:22;8.88;;;6.88;;
26946;SDS011;14501;52.282;10.560;2023-05-07T06:48:47;9.18;;;6.45;;
26946;SDS011;14501;52.282;10.560;2023-05-07T06:51:13;9.48;;;6.28;;
26946;SDS011;14501;52.282;10.560;2023-05-07T06:53:39;8.90;;;6.40;;
26946;SDS011;14501;52.282;10.560;2023-05-07T06:56:05;8.43;;;6.15;;
26946;SDS011;14501;52.282;10.560;2023-05-07T06:58:31;8.35;;;6.40;;
26946;SDS011;14501;52.282;10.560;2023-05-07T07:00:57;7.50;;;5.90;;
26946;SDS011;14501;52.282;10.560;2023-05-07T07:03:22;9.23;;;6.28;;
26946;SDS011;14501;52.282;10.560;2023-05-07T07:05:51;7.78;;;5.85;;
26946;SDS011;14501;52.282;10.560;2023-05-07T07:08:17;11.60;;;6.70;;
26946;SDS011;14501;52.282;10.560;2023-05-07T07:10:46;9.60;;;6.63;;
26946;SDS011;14501;52.282;10.560;2023-05-07T07:13:11;10.43;;;6.88;;
26946;SDS011;14501;52.282;10.560;2023-05-07T07:15:37;9.13;;;6.72;;
26946;SDS011;14501;52.282;10.560;2023-05-07T07:18:03;9.73;;;7.18;;
26946;SDS011;14501;52.282;10.560;2023-05-07T07:20:28;10.30;;;7.03;;
26946;SDS011;14501;52.282;10.560;2023-05-07T07:22:54;10.05;;;6.72;;
26946;SDS011;14501;52.282;10.560;2023-05-07T07:25:20;10.63;;;7.82;;
26946;SDS011;14501;52.282;10.560;2023-05-07T07:27:45;10.63;;;7.25;;
26946;SDS011;14501;52.282;10.560;2023-05-07T07:30:11;11.23;;;7.45;;
26946;SDS011;14501;52.282;10.560;2023-05-07T07:32:37;9.98;;;7.13;;
26946;SDS011;14501;52.282;10.560;2023-05-07T07:35:02;8.48;;;6.05;;
26946;SDS011;14501;52.282;10.560;2023-05-07T07:37:28;12.63;;;6.53;;
26946;SDS011;14501;52.282;10.560;2023-05-07T07:39:54;9.73;;;6.30;;
26946;SDS011;14501;52.282;10.560;2023-05-07T07:42:20;9.55;;;6.22;;
26946;SDS011;14501;52.282;10.560;2023-05-07T07:44:46;9.50;;;6.63;;
26946;SDS011;14501;52.282;10.560;2023-05-07T07:47:11;8.82;;;5.90;;
26946;SDS011;14501;52.282;10.560;2023-05-07T07:49:37;8.90;;;6.05;;
26946;SDS011;14501;52.282;10.560;2023-05-07T07:52:03;7.15;;;5.50;;
26946;SDS011;14501;52.282;10.560;2023-05-07T07:54:30;9.27;;;6.07;;
26946;SDS011;14501;52.282;10.560;2023-05-07T07:56:55;7.18;;;5.22;;
26946;SDS011;14501;52.282;10.560;2023-05-07T07:59:21;10.23;;;6.57;;
26946;SDS011;14501;52.282;10.560;2023-05-07T08:01:47;10.25;;;6.47;;
26946;SDS011;14501;52.282;10.560;2023-05-07T08:04:15;8.73;;;7.18;;
26946;SDS011;14501;52.282;10.560;2023-05-07T08:06:40;8.65;;;5.90;;
26946;SDS011;14501;52.282;10.560;2023-05-07T08:09:07;8.10;;;5.45;;
26946;SDS011;14501;52.282;10.560;2023-05-07T08:11:33;7.90;;;6.20;;
26946;SDS011;14501;52.282;10.560;2023-05-07T08:13:58;9.68;;;6.55;;
26946;SDS011;14501;52.282;10.560;2023-05-07T08:16:24;8.75;;;6.53;;
26946;SDS011;14501;52.282;10.560;2023-05-07T08:18:50;9.88;;;7.32;;
26946;SDS011;14501;52.282;10.560;2023-05-07T08:21:15;8.88;;;7.40;;
26946;SDS011;14501;52.282;10.560;2023-05-07T08:23:41;10.15;;;7.57;;
26946;SDS011;14501;52.282;10.560;2023-05-07T08:26:07;10.27;;;7.38;;
26946;SDS011;14501;52.282;10.560;2023-05-07T08:28:33;9.45;;;7.75;;
26946;SDS011;14501;52.282;10.560;2023-05-07T08:30:58;10.90;;;8.13;;
26946;SDS011;14501;52.282;10.560;2023-05-07T08:33:25;10.63;;;8.07;;
26946;SDS011;14501;52.282;10.560;2023-05-07T08:35:52;10.57;;;7.40;;
26946;SDS011;14501;52.282;10.560;2023-05-07T08:38:17;8.57;;;6.38;;
26946;SDS011;14501;52.282;10.560;2023-05-07T08:40:43;9.98;;;7.20;;
26946;SDS011;14501;52.282;10.560;2023-05-07T08:43:09;7.95;;;6.50;;
26946;SDS011;14501;52.282;10.560;2023-05-07T08:45:40;10.68;;;7.55;;
26946;SDS011;14501;52.282;10.560;2023-05-07T08:48:09;7.93;;;6.55;;
26946;SDS011;14501;52.282;10.560;2023-05-07T08:50:40;10.40;;;7.13;;
26946;SDS011;14501;52.282;10.560;2023-05-07T08:53:05;9.60;;;6.15;;
26946;SDS011;14501;52.282;10.560;2023-05-07T08:55:31;7.70;;;6.22;;
26946;SDS011;14501;52.282;10.560;2023-05-07T08:57:58;8.98;;;5.95;;
26946;SDS011;14501;52.282;10.560;2023-05-07T09:00:24;8.27;;;6.57;;
26946;SDS011;14501;52.282;10.560;2023-05-07T09:02:49;10.48;;;6.43;;
26946;SDS011;14501;52.282;10.560;2023-05-07T09:05:15;9.82;;;6.45;;
26946;SDS011;14501;52.282;10.560;2023-05-07T09:07:41;7.90;;;5.60;;
26946;SDS011;14501;52.282;10.560;2023-05-07T09:10:07;7.90;;;6.43;;
26946;SDS011;14501;52.282;10.560;2023-05-07T09:12:33;8.45;;;6.25;;
26946;SDS011;14501;52.282;10.560;2023-05-07T09:15:00;8.88;;;5.68;;
26946;SDS011;14501;52.282;10.560;2023-05-07T09:17:26;8.75;;;6.25;;
26946;SDS011;14501;52.282;10.560;2023-05-07T09:19:52;9.00;;;6.15;;
26946;SDS011;14501;52.282;10.560;2023-05-07T09:22:18;7.97;;;6.20;;
26946;SDS011;14501;52.282;10.560;2023-05-07T09:24:47;7.07;;;5.30;;
26946;SDS011;14501;52.282;10.560;2023-05-07T09:27:14;7.65;;;5.95;;
26946;SDS011;14501;52.282;10.560;2023-05-07T09:29:40;8.05;;;6.15;;
26946;SDS011;14501;52.282;10.560;2023-05-07T09:32:06;6.63;;;5.65;;
26946;SDS011;14501;52.282;10.560;2023-05-07T09:34:33;6.80;;;5.30;;
26946;SDS011;14501;52.282;10.560;2023-05-07T09:37:03;6.65;;;4.75;;
26946;SDS011;14501;52.282;10.560;2023-05-07T09:39:40;7.68;;;5.18;;
26946;SDS011;14501;52.282;10.560;2023-05-07T09:42:11;7.28;;;4.60;;
26946;SDS011;14501;52.282;10.560;2023-05-07T09:44:38;6.95;;;4.97;;
26946;SDS011;14501;52.282;10.560;2023-05-07T09:47:04;8.38;;;5.40;;
26946;SDS011;14501;52.282;10.560;2023-05-07T09:49:33;7.63;;;5.07;;
26946;SDS011;14501;52.282;10.560;2023-05-07T09:52:01;7.75;;;4.60;;
26946;SDS011;14501;52.282;10.560;2023-05-07T09:54:32;4.43;;;3.83;;
26946;SDS011;14501;52.282;10.560;2023-05-07T09:57:03;8.18;;;4.40;;
26946;SDS011;14501;52.282;10.560;2023-05-07T09:59:30;6.70;;;4.32;;
26946;SDS011;14501;52.282;10.560;2023-05-07T10:01:58;5.10;;;4.10;;
26946;SDS011;14501;52.282;10.560;2023-05-07T10:04:25;4.22;;;3.83;;
26946;SDS011;14501;52.282;10.560;2023-05-07T10:06:51;5.30;;;4.10;;
26946;SDS011;14501;52.282;10.560;2023-05-07T10:09:18;5.60;;;4.57;;
26946;SDS011;14501;52.282;10.560;2023-05-07T10:11:44;6.07;;;5.40;;
26946;SDS011;14501;52.282;10.560;2023-05-07T10:14:11;5.57;;;4.80;;
26946;SDS011;14501;52.282;10.560;2023-05-07T10:16:37;5.68;;;4.65;;
26946;SDS011;14501;52.282;10.560;2023-05-07T10:19:03;6.30;;;4.72;;
26946;SDS011;14501;52.282;10.560;2023-05-07T10:21:30;5.90;;;4.97;;
26946;SDS011;14501;52.282;10.560;2023-05-07T10:24:03;5.93;;;4.80;;
26946;SDS011;14501;52.282;10.560;2023-05-07T10:26:35;6.22;;;5.20;;
26946;SDS011;14501;52.282;10.560;2023-05-07T10:29:07;5.00;;;4.50;;
26946;SDS011;14501;52.282;10.560;2023-05-07T10:34:21;6.65;;;5.10;;
26946;SDS011;14501;52.282;10.560;2023-05-07T10:36:52;5.47;;;4.63;;
26946;SDS011;14501;52.282;10.560;2023-05-07T10:39:20;5.13;;;4.60;;
26946;SDS011;14501;52.282;10.560;2023-05-07T10:41:46;7.07;;;4.75;;
26946;SDS011;14501;52.282;10.560;2023-05-07T10:44:24;6.60;;;4.53;;
26946;SDS011;14501;52.282;10.560;2023-05-07T10:47:04;6.07;;;4.80;;
26946;SDS011;14501;52.282;10.560;2023-05-07T10:52:12;6.35;;;4.13;;
26946;SDS011;14501;52.282;10.560;2023-05-07T10:54:42;5.95;;;4.20;;
26946;SDS011;14501;52.282;10.560;2023-05-07T10:59:57;4.40;;;3.50;;
26946;SDS011;14501;52.282;10.560;2023-05-07T11:02:22;4.65;;;3.60;;
26946;SDS011;14501;52.282;10.560;2023-05-07T11:05:18;4.07;;;3.13;;
26946;SDS011;14501;52.282;10.560;2023-05-07T11:07:56;3.30;;;2.95;;
26946;SDS011;14501;52.282;10.560;2023-05-07T11:13:16;3.42;;;3.03;;
26946;SDS011;14501;52.282;10.560;2023-05-07T11:15:43;4.03;;;3.53;;
26946;SDS011;14501;52.282;10.560;2023-05-07T11:18:13;3.13;;;2.65;;
26946;SDS011;14501;52.282;10.560;2023-05-07T11:20:50;3.28;;;2.97;;
26946;SDS011;14501;52.282;10.560;2023-05-07T11:28:27;3.80;;;3.00;;
26946;SDS011;14501;52.282;10.560;2023-05-07T11:30:54;4.30;;;2.90;;
26946;SDS011;14501;52.282;10.560;2023-05-07T11:33:22;3.67;;;2.92;;
26946;SDS011;14501;52.282;10.560;2023-05-07T11:35:48;5.70;;;3.67;;
26946;SDS011;14501;52.282;10.560;2023-05-07T11:38:15;4.35;;;3.47;;
26946;SDS011;14501;52.282;10.560;2023-05-07T11:40:48;3.80;;;3.45;;
26946;SDS011;14501;52.282;10.560;2023-05-07T11:43:15;4.82;;;3.47;;
26946;SDS011;14501;52.282;10.560;2023-05-07T11:45:41;4.10;;;3.60;;
26946;SDS011;14501;52.282;10.560;2023-05-07T11:48:06;5.03;;;3.63;;
26946;SDS011;14501;52.282;10.560;2023-05-07T11:50:32;4.22;;;3.60;;
26946;SDS011;14501;52.282;10.560;2023-05-07T11:52:58;5.18;;;4.05;;
26946;SDS011;14501;52.282;10.560;2023-05-07T11:55:24;4.57;;;3.85;;
26946;SDS011;14501;52.282;10.560;2023-05-07T11:57:50;5.65;;;4.25;;
26946;SDS011;14501;52.282;10.560;2023-05-07T12:00:17;5.15;;;4.57;;
26946;SDS011;14501;52.282;10.560;2023-05-07T12:02:43;5.47;;;4.38;;
26946;SDS011;14501;52.282;10.560;2023-05-07T12:05:10;5.13;;;4.63;;
26946;SDS011;14501;52.282;10.560;2023-05-07T12:07:36;6.68;;;4.47;;
26946;SDS011;14501;52.282;10.560;2023-05-07T12:10:05;6.22;;;4.43;;
26946;SDS011;14501;52.282;10.560;2023-05-07T12:12:37;8.35;;;5.72;;
26946;SDS011;14501;52.282;10.560;2023-05-07T12:15:09;7.15;;;4.75;;
26946;SDS011;14501;52.282;10.560;2023-05-07T12:17:35;5.40;;;4.53;;
26946;SDS011;14501;52.282;10.560;2023-05-07T12:20:01;5.90;;;4.40;;
26946;SDS011;14501;52.282;10.560;2023-05-07T12:22:28;5.65;;;4.97;;
26946;SDS011;14501;52.282;10.560;2023-05-07T12:24:57;5.63;;;4.38;;
26946;SDS011;14501;52.282;10.560;2023-05-07T12:27:23;5.93;;;4.88;;
26946;SDS011;14501;52.282;10.560;2023-05-07T12:29:49;4.53;;;4.05;;
26946;SDS011;14501;52.282;10.560;2023-05-07T12:32:19;5.68;;;4.70;;
26946;SDS011;14501;52.282;10.560;2023-05-07T12:34:51;6.72;;;4.55;;
26946;SDS011;14501;52.282;10.560;2023-05-07T12:37:22;8.65;;;4.25;;
26946;SDS011;14501;52.282;10.560;2023-05-07T12:39:49;6.13;;;4.22;;
26946;SDS011;14501;52.282;10.560;2023-05-07T12:42:28;6.90;;;4.50;;
26946;SDS011;14501;52.282;10.560;2023-05-07T12:45:07;5.43;;;4.20;;
26946;SDS011;14501;52.282;10.560;2023-05-07T12:47:36;7.32;;;4.97;;
26946;SDS011;14501;52.282;10.560;2023-05-07T12:50:05;5.78;;;3.85;;
26946;SDS011;14501;52.282;10.560;2023-05-07T12:52:31;7.13;;;4.80;;
26946;SDS011;14501;52.282;10.560;2023-05-07T12:55:03;5.90;;;4.25;;
26946;SDS011;14501;52.282;10.560;2023-05-07T12:57:30;5.00;;;3.97;;
26946;SDS011;14501;52.282;10.560;2023-05-07T13:00:13;5.00;;;3.83;;
26946;SDS011;14501;52.282;10.560;2023-05-07T13:02:40;5.68;;;3.70;;
26946;SDS011;14501;52.282;10.560;2023-05-07T13:05:09;4.60;;;3.65;;
26946;SDS011;14501;52.282;10.560;2023-05-07T13:07:34;4.53;;;3.83;;
26946;SDS011;14501;52.282;10.560;2023-05-07T13:10:01;6.03;;;3.85;;
26946;SDS011;14501;52.282;10.560;2023-05-07T13:12:27;5.20;;;3.90;;
26946;SDS011;14501;52.282;10.560;2023-05-07T13:14:53;4.57;;;3.58;;
26946;SDS011;14501;52.282;10.560;2023-05-07T13:17:19;4.28;;;3.40;;
26946;SDS011;14501;52.282;10.560;2023-05-07T13:19:44;4.68;;;3.55;;
26946;SDS011;14501;52.282;10.560;2023-05-07T13:22:10;3.75;;;3.35;;
26946;SDS011;14501;52.282;10.560;2023-05-07T13:24:36;6.53;;;4.05;;
26946;SDS011;14501;52.282;10.560;2023-05-07T13:27:01;4.82;;;3.38;;
26946;SDS011;14501;52.282;10.560;2023-05-07T13:29:28;5.75;;;3.97;;
26946;SDS011;14501;52.282;10.560;2023-05-07T13:31:58;4.70;;;4.20;;
26946;SDS011;14501;52.282;10.560;2023-05-07T13:34:24;6.20;;;3.95;;
26946;SDS011;14501;52.282;10.560;2023-05-07T13:36:50;4.88;;;3.90;;
26946;SDS011;14501;52.282;10.560;2023-05-07T13:39:16;5.43;;;4.13;;
26946;SDS011;14501;52.282;10.560;2023-05-07T13:41:41;4.60;;;3.75;;
26946;SDS011;14501;52.282;10.560;2023-05-07T13:44:07;5.18;;;3.53;;
26946;SDS011;14501;52.282;10.560;2023-05-07T13:46:32;3.80;;;3.30;;
26946;SDS011;14501;52.282;10.560;2023-05-07T13:48:58;4.32;;;3.33;;
26946;SDS011;14501;52.282;10.560;2023-05-07T13:51:24;5.45;;;3.67;;
26946;SDS011;14501;52.282;10.560;2023-05-07T13:53:50;5.05;;;3.83;;
26946;SDS011;14501;52.282;10.560;2023-05-07T13:56:17;4.35;;;3.45;;
26946;SDS011;14501;52.282;10.560;2023-05-07T13:58:43;7.38;;;3.78;;
26946;SDS011;14501;52.282;10.560;2023-05-07T14:01:08;7.00;;;4.07;;
26946;SDS011;14501;52.282;10.560;2023-05-07T14:03:34;6.50;;;3.83;;
26946;SDS011;14501;52.282;10.560;2023-05-07T14:06:02;5.28;;;3.63;;
26946;SDS011;14501;52.282;10.560;2023-05-07T14:08:28;4.38;;;3.72;;
26946;SDS011;14501;52.282;10.560;2023-05-07T14:10:54;5.05;;;3.78;;
26946;SDS011;14501;52.282;10.560;2023-05-07T14:13:20;4.03;;;3.50;;
26946;SDS011;14501;52.282;10.560;2023-05-07T14:15:45;5.43;;;3.67;;
26946;SDS011;14501;52.282;10.560;2023-05-07T14:18:13;3.70;;;3.30;;
26946;SDS011;14501;52.282;10.560;2023-05-07T14:20:39;4.90;;;3.70;;
26946;SDS011;14501;52.282;10.560;2023-05-07T14:23:04;5.07;;;4.57;;
26946;SDS011;14501;52.282;10.560;2023-05-07T14:25:30;6.30;;;4.75;;
26946;SDS011;14501;52.282;10.560;2023-05-07T14:27:56;6.82;;;4.45;;
26946;SDS011;14501;52.282;10.560;2023-05-07T14:30:21;6.47;;;4.22;;
26946;SDS011;14501;52.282;10.560;2023-05-07T14:32:49;5.32;;;4.07;;
26946;SDS011;14501;52.282;10.560;2023-05-07T14:35:15;5.72;;;4.80;;
26946;SDS011;14501;52.282;10.560;2023-05-07T14:37:41;5.07;;;4.32;;
26946;SDS011;14501;52.282;10.560;2023-05-07T14:40:07;5.68;;;4.50;;